Detalii statie GENERAL AGRO [00001CEA]

Toti senzorii

Date Temperatura solului [C]Precipitatii [mm]Voltaj baterie [mV]HC Air temperature [C]HC Relative humidity [%]Punctul de roua [C]
medieminmaxsumaultimamedieminmaxmediemediemin
2018-08-12 11:00:00 24.9 24.7 25.4 0 7128 28.98 28.54 29.76 0 0 0
2018-08-12 11:30:00 25.6 25.3 26 0 7128 29.3 28.77 29.82 0 0 0
2018-08-12 12:00:00 26.3 26 26.9 0 7128 29.89 29.6 30.12 0 0 0
2018-08-12 12:30:00 26.9 26.6 27.4 0 7118 29.89 29.4 30.49 0 0 0
2018-08-12 13:00:00 27.5 27.4 27.8 0 7118 30.4 30.04 30.61 0 0 0
2018-08-12 13:30:00 28 27.8 28.3 0 7118 30.66 30.55 30.78 0 0 0
2018-08-12 14:00:00 28.5 28.3 28.7 0 7040 31.27 30.63 32.19 0 0 0
2018-08-12 14:30:00 28.8 28.7 28.9 0 6972 31.53 30.65 32.42 0 0 0
2018-08-12 15:00:00 29.2 29.1 29.4 0 6942 31.39 30.69 32.12 0 0 0
2018-08-12 15:30:00 29.3 29.3 29.5 0 6914 31.18 30.78 31.5 0 0 0
2018-08-12 16:00:00 29.4 29.4 29.6 0 6914 31.07 30.44 31.94 0 0 0
2018-08-12 16:30:00 29.5 29.3 29.6 0 6894 30.91 29.35 31.95 0 0 0
2018-08-12 17:00:00 29.3 29.3 29.4 0 6904 30.44 29.72 30.98 0 0 0
2018-08-12 17:30:00 29 28.9 29.2 0 6894 30.7 30.02 31.08 0 0 0
2018-08-12 18:00:00 29 28.9 29.2 0 6894 29.55 29.27 29.81 0 0 0
2018-08-12 18:30:00 28.7 28.6 28.8 0 6864 28.71 28.28 29.02 0 0 0
2018-08-12 19:00:00 28.4 28.2 28.6 0 6864 27.28 26.5 28 0 0 0
2018-08-12 19:30:00 27.9 27.9 28.2 0 6854 24.92 23.72 26.18 0 0 0
2018-08-12 20:00:00 27.5 27.2 27.8 0 6874 22.66 22.21 23.3 0 0 0
2018-08-12 20:30:00 27.1 27 27.4 0 6854 22.09 21.69 22.69 0 0 0
2018-08-12 21:00:00 26.7 26.5 26.8 0 6864 21.64 21.19 22.25 0 0 0
2018-08-12 21:30:00 26.3 26.2 26.6 0 6854 22.32 21.38 22.91 0 0 0
2018-08-12 22:00:00 26 26 26.1 0 6854 20.48 20.17 20.87 0 0 0
2018-08-12 22:30:00 25.7 25.4 25.9 0 6844 19.46 18.56 20.54 0 0 0
2018-08-12 23:00:00 25.2 25.1 25.5 0 6834 20.48 19.76 21.1 0 0 0
2018-08-12 23:30:00 24.9 24.7 25.1 0 6834 19.79 19.06 20.3 0 0 0
2018-08-13 00:00:00 24.5 24.4 24.7 0 6844 17.98 17.41 18.38 0 0 0
2018-08-13 00:30:00 24.2 24.1 24.4 0 6816 17.5 16.97 18.24 0 0 0
2018-08-13 01:00:00 23.8 23.7 24 0 6834 17.39 17.03 17.78 0 0 0
2018-08-13 01:30:00 23.6 23.5 23.7 0 6806 17.35 16.67 18 0 0 0
2018-08-13 02:00:00 23.3 23.3 23.4 0 6816 16.06 15.62 16.36 0 0 0
2018-08-13 02:30:00 23.1 23 23.4 0 6796 16.03 15.71 16.29 0 0 0
2018-08-13 03:00:00 22.8 22.6 22.9 0 6816 15.57 15.06 16.26 0 0 0
2018-08-13 03:30:00 22.7 22.5 22.8 0 6806 15.39 15.15 15.67 0 0 0
2018-08-13 04:00:00 22.3 22.2 22.4 0 6806 14.4 13.83 15.08 0 0 0
2018-08-13 04:30:00 22.1 22.1 22.3 0 6796 14.29 14.01 14.46 0 0 0
2018-08-13 05:00:00 21.9 21.9 22 0 6806 14.11 12.97 14.6 0 0 0
2018-08-13 05:30:00 21.7 21.7 21.9 0 6786 12.93 12.73 13.37 0 0 0
2018-08-13 06:00:00 21.5 21.4 21.6 0 6796 14.4 13.72 15.53 0 0 0
2018-08-13 06:30:00 21.4 21.3 21.5 0 6796 17.03 16.15 17.86 0 0 0
2018-08-13 07:00:00 21.5 21.4 21.6 0 6826 19.35 18.36 20.27 0 0 0
2018-08-13 07:30:00 21.6 21.5 21.7 0 6826 21.73 20.95 22.28 0 0 0
2018-08-13 08:00:00 21.9 21.7 22 0 6952 22.61 22.09 23.03 0 0 0
2018-08-13 08:30:00 22.1 22 22.3 0 7050 24.11 23.31 24.82 0 0 0
2018-08-13 09:00:00 22.5 22.3 22.9 0 7138 25.11 24.47 26.47 0 0 0
2018-08-13 09:30:00 23 22.8 23.4 0 7138 26.82 26.06 27.83 0 0 0
2018-08-13 10:00:00 23.5 23.3 23.8 0 7138 27.8 27.23 28.28 0 0 0
2018-08-13 10:30:00 24.1 24 24.5 0 7138 29.46 28.49 30.48 0 0 0